createdAt,value
2022-12-13T00:01:45.469Z,99399.69
2022-12-13T00:04:13.944Z,99399.69
2022-12-13T00:06:42.342Z,99404.09
2022-12-13T00:09:10.244Z,99399.72
2022-12-13T00:11:39.600Z,99409.38
2022-12-13T00:14:07.481Z,99389.38
2022-12-13T00:16:35.633Z,99385.97
2022-12-13T00:19:03.406Z,99394.56
2022-12-13T00:21:34.114Z,99384.09
2022-12-13T00:24:02.607Z,99394.59
2022-12-13T00:26:33.001Z,99391.19
2022-12-13T00:29:03.775Z,99375.50
2022-12-13T00:34:20.371Z,99391.28
2022-12-13T00:36:48.472Z,99384.31
2022-12-13T00:39:16.708Z,99379.22
2022-12-13T00:41:45.299Z,99377.47
2022-12-13T00:44:14.845Z,99381.75
2022-12-13T00:46:43.815Z,99383.59
2022-12-13T00:49:12.661Z,99383.66
2022-12-13T00:51:41.105Z,99366.22
2022-12-13T00:54:08.903Z,99379.31
2022-12-13T00:56:38.607Z,99372.34
2022-12-13T00:59:06.652Z,99370.66
2022-12-13T01:01:37.518Z,99378.47
2022-12-13T01:04:06.856Z,99374.19
2022-12-13T01:06:37.683Z,99375.03
2022-12-13T01:09:07.013Z,99369.78
2022-12-13T01:11:35.110Z,99373.28
2022-12-13T01:14:03.334Z,99375.88
2022-12-13T01:16:31.250Z,99370.63
2022-12-13T01:19:00.387Z,99369.69
2022-12-13T01:21:29.762Z,99372.31
2022-12-13T01:24:02.060Z,99379.25
2022-12-13T01:26:30.341Z,99367.06
2022-12-13T01:28:58.042Z,99390.72
2022-12-13T01:31:26.361Z,99392.44
2022-12-13T01:33:55.244Z,99379.44
2022-12-13T01:36:27.536Z,99390.75
2022-12-13T01:38:58.436Z,99392.59
2022-12-13T01:41:27.859Z,99402.19
2022-12-13T01:44:01.098Z,99397.84
2022-12-13T01:46:29.620Z,99389.97
2022-12-13T01:49:04.132Z,99391.78
2022-12-13T01:51:38.629Z,99396.06
2022-12-13T01:54:10.071Z,99396.03
2022-12-13T01:56:42.370Z,99392.56
2022-12-13T01:59:13.143Z,99390.06
2022-12-13T02:01:41.559Z,99388.28
2022-12-13T02:04:09.727Z,99389.97
2022-12-13T02:06:41.619Z,99388.25
2022-12-13T02:09:10.380Z,99383.88
2022-12-13T02:11:41.914Z,99390.03
2022-12-13T02:14:09.854Z,99387.38
2022-12-13T02:16:50.261Z,99384.84
2022-12-13T02:20:01.114Z,99397.03
2022-12-13T02:22:49.650Z,99392.72
2022-12-13T02:25:43.146Z,99391.06
2022-12-13T02:28:31.571Z,99385.75
2022-12-13T02:31:07.966Z,99394.50
2022-12-13T02:33:46.206Z,99388.44
2022-12-13T02:36:19.880Z,99388.47
2022-12-13T02:38:55.532Z,99380.63
2022-12-13T02:41:29.000Z,99381.44
2022-12-13T02:44:02.725Z,99390.16
2022-12-13T02:46:35.900Z,99378.03
2022-12-13T02:49:04.760Z,99390.22
2022-12-13T02:51:33.506Z,99374.59
2022-12-13T02:54:01.399Z,99387.66
2022-12-13T02:56:29.075Z,99377.22
2022-12-13T02:58:59.838Z,99381.56
2022-12-13T03:01:41.755Z,99371.19
2022-12-13T03:04:17.259Z,99377.22
2022-12-13T03:06:52.410Z,99381.56
2022-12-13T03:09:33.069Z,99374.66
2022-12-13T03:12:32.235Z,99375.53
2022-12-13T03:15:08.306Z,99374.66
2022-12-13T03:17:44.678Z,99381.63
2022-12-13T03:20:22.777Z,99362.53
2022-12-13T03:22:51.532Z,99364.34
2022-12-13T03:25:32.171Z,99363.47
2022-12-13T03:28:02.208Z,99370.41
2022-12-13T03:30:30.499Z,99360.06
2022-12-13T03:32:59.741Z,99373.03
2022-12-13T03:35:34.974Z,99359.16
2022-12-13T03:38:22.153Z,99370.41
2022-12-13T03:40:52.887Z,99370.38
2022-12-13T03:43:29.498Z,99377.31
2022-12-13T03:45:57.855Z,99359.19
2022-12-13T03:48:27.072Z,99363.50
2022-12-13T03:50:55.549Z,99366.94
2022-12-13T03:53:32.238Z,99358.22
2022-12-13T03:56:06.502Z,99352.16
2022-12-13T03:58:38.000Z,99356.50
2022-12-13T04:01:07.939Z,99348.72
2022-12-13T04:03:37.736Z,99352.19
2022-12-13T04:06:06.834Z,99336.56
2022-12-13T04:08:36.264Z,99335.72
2022-12-13T04:11:25.806Z,99343.50
2022-12-13T04:13:53.203Z,99353.94
2022-12-13T04:16:21.395Z,99353.97
2022-12-13T04:18:51.178Z,99337.38
2022-12-13T04:21:20.390Z,99345.22
2022-12-13T04:23:49.111Z,99368.66
2022-12-13T04:26:16.837Z,99350.41
2022-12-13T04:28:48.178Z,99357.38
2022-12-13T04:31:20.382Z,99354.69
2022-12-13T04:33:48.217Z,99345.13
2022-12-13T04:36:31.783Z,99353.88
2022-12-13T04:39:00.974Z,99365.22
2022-12-13T04:41:34.346Z,99353.88
2022-12-13T04:44:03.137Z,99348.66
2022-12-13T04:46:31.286Z,99350.34
2022-12-13T04:48:59.002Z,99349.44
2022-12-13T04:51:28.803Z,99332.97
2022-12-13T04:53:57.405Z,99330.34
2022-12-13T04:56:45.406Z,99326.88
2022-12-13T04:59:13.246Z,99325.97
2022-12-13T05:01:40.992Z,99329.44
2022-12-13T05:04:08.929Z,99316.47
2022-12-13T05:06:37.977Z,99329.47
2022-12-13T05:09:05.780Z,99318.19
2022-12-13T05:11:39.322Z,99317.34
2022-12-13T05:14:14.044Z,99315.59
2022-12-13T05:16:51.025Z,99294.72
2022-12-13T05:19:18.869Z,99310.34
2022-12-13T05:21:49.257Z,99299.81
2022-12-13T05:24:17.370Z,99307.56
2022-12-13T05:26:45.160Z,99302.19
2022-12-13T05:29:12.956Z,99303.97
2022-12-13T05:31:42.201Z,99304.00
2022-12-13T05:34:11.544Z,99303.22
2022-12-13T05:36:39.689Z,99311.09
2022-12-13T05:39:28.442Z,99308.44
2022-12-13T05:42:01.285Z,99297.13
2022-12-13T05:44:29.985Z,99306.78
2022-12-13T05:47:02.319Z,99306.75
2022-12-13T05:49:31.126Z,99312.84
2022-12-13T05:51:59.197Z,99312.88
2022-12-13T05:54:28.674Z,99302.50
2022-12-13T05:56:56.522Z,99316.47
2022-12-13T05:59:27.116Z,99299.78
2022-12-13T06:01:55.214Z,99304.09
2022-12-13T06:04:23.609Z,99307.56
2022-12-13T06:06:52.944Z,99311.91
2022-12-13T06:09:21.163Z,99317.13
2022-12-13T06:11:51.145Z,99301.50
2022-12-13T06:14:22.187Z,99306.66
2022-12-13T06:16:51.689Z,99304.91
2022-12-13T06:19:19.803Z,99298.88
2022-12-13T06:21:47.472Z,99311.88
2022-12-13T06:24:16.401Z,99309.28
2022-12-13T06:26:45.351Z,99319.66
2022-12-13T06:29:23.734Z,99319.72
2022-12-13T06:31:55.089Z,99314.56
2022-12-13T06:34:30.892Z,99319.84
2022-12-13T06:37:00.872Z,99318.16
2022-12-13T06:39:32.843Z,99301.56
2022-12-13T06:42:01.904Z,99308.50
2022-12-13T06:44:32.499Z,99310.31
2022-12-13T06:47:10.223Z,99319.88
2022-12-13T06:49:40.674Z,99313.81
2022-12-13T06:52:12.030Z,99310.22
2022-12-13T06:54:40.085Z,99307.53
2022-12-13T06:57:08.001Z,99309.25
2022-12-13T06:59:37.795Z,99308.38
2022-12-13T07:02:06.114Z,99304.06
2022-12-13T07:04:42.967Z,99317.16
2022-12-13T07:07:10.686Z,99318.00
2022-12-13T07:09:39.019Z,99324.22
2022-12-13T07:12:07.455Z,99319.03
2022-12-13T07:14:40.788Z,99317.25
2022-12-13T07:17:10.687Z,99310.31
2022-12-13T07:19:38.280Z,99319.06
2022-12-13T07:22:06.400Z,99315.59
2022-12-13T07:24:35.568Z,99322.56
2022-12-13T07:27:03.461Z,99320.78
2022-12-13T07:29:31.220Z,99320.81
2022-12-13T07:32:01.196Z,99315.59
2022-12-13T07:34:32.190Z,99320.84
2022-12-13T07:36:59.839Z,99316.50
2022-12-13T07:39:27.991Z,99325.19
2022-12-13T07:41:56.747Z,99324.38
2022-12-13T07:44:25.084Z,99325.22
2022-12-13T07:46:53.050Z,99308.72
2022-12-13T07:49:20.888Z,99328.69
2022-12-13T07:51:50.168Z,99306.94
2022-12-13T07:54:18.439Z,99313.88
2022-12-13T07:56:46.211Z,99312.03
2022-12-13T07:59:14.387Z,99309.44
2022-12-13T08:01:42.447Z,99324.16
2022-12-13T08:04:10.306Z,99325.88
2022-12-13T08:06:38.922Z,99337.16
2022-12-13T08:09:08.208Z,99335.41
2022-12-13T08:11:36.170Z,99327.59
2022-12-13T08:14:04.009Z,99340.66
2022-12-13T08:16:31.742Z,99348.50
2022-12-13T08:19:02.014Z,99339.00
2022-12-13T08:24:24.531Z,99337.16
2022-12-13T08:26:52.484Z,99338.03
2022-12-13T08:29:22.773Z,99338.03
2022-12-13T08:32:01.357Z,99333.75
2022-12-13T08:34:29.183Z,99338.88
2022-12-13T08:37:02.869Z,99343.16
2022-12-13T08:39:35.391Z,99350.13
2022-12-13T08:42:15.825Z,99340.53
2022-12-13T08:44:46.735Z,99345.78
2022-12-13T08:47:23.708Z,99335.31
2022-12-13T08:49:55.874Z,99349.19
2022-12-13T08:52:31.735Z,99336.31
2022-12-13T08:55:01.950Z,99355.44
2022-12-13T08:57:29.527Z,99338.81
2022-12-13T08:59:57.085Z,99342.22
2022-12-13T09:02:24.745Z,99344.81
2022-12-13T09:04:54.333Z,99331.75
2022-12-13T09:07:22.099Z,99347.25
2022-12-13T09:09:54.651Z,99339.47
2022-12-13T09:12:30.671Z,99343.72
2022-12-13T09:15:01.280Z,99347.94
2022-12-13T09:17:36.990Z,99337.41
2022-12-13T09:20:10.359Z,99353.91
2022-12-13T09:23:01.916Z,99353.06
2022-12-13T09:25:36.565Z,99345.13
2022-12-13T09:28:09.452Z,99347.66
2022-12-13T09:30:38.576Z,99351.97
2022-12-13T09:33:17.847Z,99335.38
2022-12-13T09:35:54.816Z,99351.88
2022-12-13T09:38:22.412Z,99350.09
2022-12-13T09:40:59.046Z,99351.78
2022-12-13T09:43:33.080Z,99349.13
2022-12-13T09:46:13.374Z,99358.66
2022-12-13T09:49:01.110Z,99352.53
2022-12-13T09:51:43.540Z,99349.88
2022-12-13T09:54:19.461Z,99356.78
2022-12-13T09:56:50.556Z,99353.22
2022-12-13T09:59:24.598Z,99338.38
2022-12-13T10:01:52.201Z,99339.94
2022-12-13T10:04:19.760Z,99338.09
2022-12-13T10:06:47.549Z,99327.59
2022-12-13T10:09:15.502Z,99327.56
2022-12-13T10:11:50.793Z,99329.34
2022-12-13T10:14:23.775Z,99321.28
2022-12-13T10:16:57.666Z,99315.25
2022-12-13T10:19:34.649Z,99325.53
2022-12-13T10:22:05.492Z,99326.38
2022-12-13T10:24:51.418Z,99328.94
2022-12-13T10:27:19.554Z,99318.28
2022-12-13T10:30:07.647Z,99318.25
2022-12-13T10:32:44.697Z,99317.28
2022-12-13T10:35:21.513Z,99316.69
2022-12-13T10:37:49.505Z,99311.13
2022-12-13T10:40:33.971Z,99298.84
2022-12-13T10:43:15.578Z,99300.44
2022-12-13T10:45:57.293Z,99309.03
2022-12-13T10:48:28.023Z,99295.09
2022-12-13T10:51:01.307Z,99284.59
2022-12-13T10:53:32.094Z,99289.03
2022-12-13T10:56:02.314Z,99288.84
2022-12-13T10:58:40.236Z,99286.31
2022-12-13T11:01:21.851Z,99289.75
2022-12-13T11:04:02.109Z,99287.94
2022-12-13T11:06:43.305Z,99288.84
2022-12-13T11:09:23.150Z,99271.41
2022-12-13T11:11:58.203Z,99275.63
2022-12-13T11:14:32.397Z,99271.97
2022-12-13T11:17:08.851Z,99274.56
2022-12-13T11:19:40.830Z,99266.84
2022-12-13T11:22:10.188Z,99256.34
2022-12-13T11:24:42.188Z,99253.63
2022-12-13T11:27:29.475Z,99257.16
2022-12-13T11:30:11.833Z,99238.75
2022-12-13T11:32:59.290Z,99242.16
2022-12-13T11:35:33.965Z,99243.53
2022-12-13T11:38:07.516Z,99238.06
2022-12-13T11:40:42.503Z,99231.78
2022-12-13T11:43:17.253Z,99217.03
2022-12-13T11:45:52.480Z,99227.47
2022-12-13T11:48:27.355Z,99236.25
2022-12-13T11:50:56.897Z,99229.19
2022-12-13T11:53:31.248Z,99228.50
2022-12-13T11:56:06.605Z,99231.78
2022-12-13T11:59:02.641Z,99233.38
2022-12-13T12:01:38.512Z,99229.75
2022-12-13T12:04:19.941Z,99230.44
2022-12-13T12:06:51.686Z,99225.81
2022-12-13T12:09:24.003Z,99225.88
2022-12-13T12:11:58.761Z,99217.84
2022-12-13T12:14:38.730Z,99211.72
2022-12-13T12:17:07.126Z,99220.47
2022-12-13T12:19:39.156Z,99224.69
2022-12-13T12:22:24.608Z,99218.75
2022-12-13T12:25:04.003Z,99221.19
2022-12-13T12:27:42.000Z,99217.66
2022-12-13T12:30:23.123Z,99199.34
2022-12-13T12:32:56.668Z,99208.81
2022-12-13T12:35:46.415Z,99212.03
2022-12-13T12:38:32.334Z,99199.97
2022-12-13T12:41:20.864Z,99205.88
2022-12-13T12:43:57.041Z,99205.38
2022-12-13T12:47:08.807Z,99201.88
2022-12-13T12:50:01.913Z,99211.16
2022-12-13T12:52:43.612Z,99205.03
2022-12-13T12:55:18.284Z,99204.44
2022-12-13T12:57:56.110Z,99200.22
2022-12-13T13:00:25.873Z,99205.38
2022-12-13T13:03:01.481Z,99190.47
2022-12-13T13:05:34.838Z,99196.75
2022-12-13T13:08:12.986Z,99190.03
2022-12-13T13:10:42.233Z,99198.56
2022-12-13T13:13:46.610Z,99201.94
2022-12-13T13:16:32.220Z,99196.69
2022-12-13T13:19:00.584Z,99186.16
2022-12-13T13:21:34.478Z,99189.56
2022-12-13T13:24:16.782Z,99185.91
2022-12-13T13:26:47.055Z,99194.38
2022-12-13T13:29:43.327Z,99190.13
2022-12-13T13:32:37.539Z,99189.28
2022-12-13T13:35:53.500Z,99192.63
2022-12-13T13:38:49.363Z,99190.06
2022-12-13T13:42:07.713Z,99194.28
2022-12-13T13:44:56.416Z,99190.59
2022-12-13T13:47:36.245Z,99186.41
2022-12-13T13:50:22.051Z,99186.41
2022-12-13T13:52:58.504Z,99186.16
2022-12-13T13:55:38.718Z,99183.50
2022-12-13T13:59:00.044Z,99184.56
2022-12-13T14:02:03.478Z,99183.63
2022-12-13T14:05:07.611Z,99178.69
2022-12-13T14:08:10.046Z,99177.84
2022-12-13T14:10:51.755Z,99189.03
2022-12-13T14:14:22.119Z,99175.25
2022-12-13T14:17:26.907Z,99168.47
2022-12-13T14:20:16.093Z,99169.25
2022-12-13T14:22:47.775Z,99164.88
2022-12-13T14:25:52.564Z,99171.78
2022-12-13T14:28:30.819Z,99167.53
2022-12-13T14:30:58.463Z,99166.81
2022-12-13T14:33:28.212Z,99160.84
2022-12-13T14:35:58.209Z,99166.09
2022-12-13T14:38:27.507Z,99148.66
2022-12-13T14:40:56.424Z,99161.09
2022-12-13T14:43:25.599Z,99154.06
2022-12-13T14:45:57.513Z,99151.16
2022-12-13T14:48:29.614Z,99154.66
2022-12-13T14:50:57.684Z,99150.31
2022-12-13T14:53:29.360Z,99152.25
2022-12-13T14:56:05.696Z,99165.47
2022-12-13T14:58:33.409Z,99169.03
2022-12-13T15:01:00.922Z,99164.81
2022-12-13T15:03:30.127Z,99170.84
2022-12-13T15:06:00.190Z,99160.41
2022-12-13T15:08:28.463Z,99164.06
2022-12-13T15:10:58.066Z,99158.88
2022-12-13T15:13:30.091Z,99157.25
2022-12-13T15:16:01.285Z,99143.19
2022-12-13T15:18:31.289Z,99138.72
2022-12-13T15:20:59.029Z,99140.59
2022-12-13T15:23:31.160Z,99133.63
2022-12-13T15:26:03.213Z,99130.19
2022-12-13T15:28:52.858Z,99137.22
2022-12-13T15:31:22.165Z,99113.69
2022-12-13T15:33:51.559Z,99120.75
2022-12-13T15:36:23.073Z,99126.91
2022-12-13T15:39:01.363Z,99111.38
2022-12-13T15:41:31.630Z,99124.47
2022-12-13T15:44:01.943Z,99122.84
2022-12-13T15:46:32.323Z,99114.09
2022-12-13T15:49:03.404Z,99110.66
2022-12-13T15:51:31.305Z,99116.88
2022-12-13T15:54:05.904Z,99116.81
2022-12-13T15:56:35.506Z,99113.47
2022-12-13T15:59:04.371Z,99113.38
2022-12-13T16:01:34.990Z,99106.34
2022-12-13T16:04:07.002Z,99104.56
2022-12-13T16:06:35.176Z,99100.28
2022-12-13T16:09:07.818Z,99101.09
2022-12-13T16:11:38.538Z,99096.84
2022-12-13T16:14:37.890Z,99099.22
2022-12-13T16:17:11.339Z,99086.19
2022-12-13T16:19:40.179Z,99079.03
2022-12-13T16:22:08.528Z,99073.78
2022-12-13T16:24:36.921Z,99073.88
2022-12-13T16:27:08.831Z,99073.13
2022-12-13T16:29:37.301Z,99066.09
2022-12-13T16:32:08.352Z,99069.75
2022-12-13T16:34:36.595Z,99066.28
2022-12-13T16:37:08.496Z,99070.91
2022-12-13T16:39:53.349Z,99072.63
2022-12-13T16:42:20.836Z,99079.75
2022-12-13T16:45:11.348Z,99086.91
2022-12-13T16:47:48.096Z,99078.22
2022-12-13T16:50:18.090Z,99070.44
2022-12-13T16:52:47.128Z,99071.28
2022-12-13T16:55:14.901Z,99068.72
2022-12-13T16:57:42.465Z,99073.91
2022-12-13T17:00:13.230Z,99069.34
2022-12-13T17:02:40.864Z,99057.28
2022-12-13T17:05:09.591Z,99057.25
2022-12-13T17:07:37.093Z,99061.44
2022-12-13T17:10:07.784Z,99063.28
2022-12-13T17:12:35.468Z,99061.38
2022-12-13T17:15:03.133Z,99057.03
2022-12-13T17:17:30.679Z,99066.72
2022-12-13T17:19:58.208Z,99055.50
2022-12-13T17:22:25.768Z,99065.16
2022-12-13T17:24:53.275Z,99063.34
2022-12-13T17:27:22.100Z,99067.78
2022-12-13T17:29:49.634Z,99064.31
2022-12-13T17:32:17.253Z,99065.16
2022-12-13T17:34:44.741Z,99055.47
2022-12-13T17:37:13.245Z,99039.78
2022-12-13T17:39:40.705Z,99055.34
2022-12-13T17:42:08.337Z,99049.03
2022-12-13T17:44:37.164Z,99048.28
2022-12-13T17:47:04.964Z,99048.31
2022-12-13T17:49:32.468Z,99040.59
2022-12-13T17:52:01.228Z,99049.34
2022-12-13T17:54:29.408Z,99041.50
2022-12-13T17:56:56.937Z,99039.78
2022-12-13T17:59:24.435Z,99041.56
2022-12-13T18:01:57.166Z,99032.84
2022-12-13T18:04:26.820Z,99039.72
2022-12-13T18:06:54.284Z,99037.06
2022-12-13T18:09:21.770Z,99026.75
2022-12-13T18:11:49.587Z,99039.81
2022-12-13T18:14:17.250Z,99039.69
2022-12-13T18:16:44.703Z,99033.69
2022-12-13T18:19:15.093Z,99035.59
2022-12-13T18:21:43.108Z,99030.38
2022-12-13T18:24:11.575Z,99038.22
2022-12-13T18:26:39.196Z,99034.66
2022-12-13T18:29:06.720Z,99027.72
2022-12-13T18:31:34.278Z,99038.22
2022-12-13T18:34:02.429Z,99027.78
2022-12-13T18:36:32.355Z,99028.66
2022-12-13T18:38:59.872Z,99017.44
2022-12-13T18:41:29.873Z,99023.53
2022-12-13T18:43:59.951Z,99029.72
2022-12-13T18:46:29.474Z,99025.50
2022-12-13T18:48:57.690Z,99024.72
2022-12-13T18:54:15.769Z,99016.19
2022-12-13T18:56:43.577Z,99009.19
2022-12-13T18:59:12.610Z,99017.75
2022-12-13T19:01:40.183Z,99017.94
2022-12-13T19:04:07.696Z,99024.13
2022-12-13T19:06:35.397Z,99017.94
2022-12-13T19:09:42.597Z,99023.28
2022-12-13T19:12:23.654Z,99019.03
2022-12-13T19:14:54.659Z,99017.22
2022-12-13T19:17:22.844Z,99019.66
2022-12-13T19:19:50.389Z,99028.47
2022-12-13T19:22:17.925Z,99024.13
2022-12-13T19:24:45.542Z,99027.75
2022-12-13T19:27:13.449Z,99025.94
2022-12-13T19:29:42.209Z,99023.44
2022-12-13T19:32:09.722Z,99025.16
2022-12-13T19:34:37.216Z,99013.88
2022-12-13T19:37:06.699Z,99014.84
2022-12-13T19:39:34.449Z,99018.31
2022-12-13T19:42:01.908Z,99012.19
2022-12-13T19:44:29.608Z,99013.84
2022-12-13T19:46:59.101Z,99006.84
2022-12-13T19:49:26.821Z,99006.94
2022-12-13T19:51:55.180Z,98997.31
2022-12-13T19:54:24.735Z,99005.09
2022-12-13T19:56:53.214Z,98993.03
2022-12-13T19:59:21.270Z,98997.31
2022-12-13T20:01:49.130Z,98991.25
2022-12-13T20:04:18.142Z,98991.38
2022-12-13T20:06:45.636Z,98983.53
2022-12-13T20:09:14.243Z,98988.84
2022-12-13T20:11:42.231Z,98981.78
2022-12-13T20:14:09.949Z,98967.84
2022-12-13T20:16:37.532Z,98970.50
2022-12-13T20:19:05.048Z,98967.00
2022-12-13T20:21:34.196Z,98964.28
2022-12-13T20:24:02.889Z,98968.72
2022-12-13T20:26:33.172Z,98973.16
2022-12-13T20:29:01.194Z,98974.88
2022-12-13T20:31:31.159Z,98965.25
2022-12-13T20:34:00.818Z,98958.28
2022-12-13T20:36:29.956Z,98955.66
2022-12-13T20:39:00.459Z,98941.56
2022-12-13T20:41:29.848Z,98935.28
2022-12-13T20:43:58.850Z,98937.72
2022-12-13T20:46:28.275Z,98934.94
2022-12-13T20:48:57.589Z,98922.75
2022-12-13T20:51:26.954Z,98920.94
2022-12-13T20:53:55.355Z,98922.88
2022-12-13T20:56:26.338Z,98913.16
2022-12-13T20:58:53.964Z,98909.75
2022-12-13T21:01:23.352Z,98906.28
2022-12-13T21:03:53.545Z,98909.91
2022-12-13T21:06:21.211Z,98899.31
2022-12-13T21:08:52.076Z,98880.34
2022-12-13T21:11:27.797Z,98891.69
2022-12-13T21:14:05.309Z,98875.22
2022-12-13T21:16:38.674Z,98885.44
2022-12-13T21:19:08.451Z,98879.38
2022-12-13T21:21:36.380Z,98874.13
2022-12-13T21:24:04.703Z,98868.84
2022-12-13T21:26:35.747Z,98873.09
2022-12-13T21:29:07.376Z,98874.69
2022-12-13T21:31:36.830Z,98867.88
2022-12-13T21:34:05.568Z,98867.78
2022-12-13T21:36:34.724Z,98871.25
2022-12-13T21:39:05.867Z,98869.56
2022-12-13T21:41:33.405Z,98870.47
2022-12-13T21:44:00.900Z,98859.81
2022-12-13T21:46:55.250Z,98860.56
2022-12-13T21:49:18.507Z,98852.84
2022-12-13T21:51:48.228Z,98846.63
2022-12-13T21:54:16.376Z,98840.72
2022-12-13T21:57:01.680Z,98839.00
2022-12-13T21:59:29.746Z,98840.06
2022-12-13T22:02:13.089Z,98839.19
2022-12-13T22:04:43.266Z,98831.13
2022-12-13T22:07:12.475Z,98824.06
2022-12-13T22:09:39.991Z,98817.16
2022-12-13T22:12:09.806Z,98815.47
2022-12-13T22:14:37.546Z,98818.84
2022-12-13T22:17:06.381Z,98812.94
2022-12-13T22:19:34.125Z,98819.13
2022-12-13T22:22:01.769Z,98814.75
2022-12-13T22:24:29.248Z,98815.56
2022-12-13T22:26:56.719Z,98817.16
2022-12-13T22:29:24.685Z,98816.31
2022-12-13T22:31:52.148Z,98812.88
2022-12-13T22:34:20.990Z,98817.34
2022-12-13T22:36:48.447Z,98807.59
2022-12-13T22:39:17.638Z,98804.22
2022-12-13T22:41:45.976Z,98805.13
2022-12-13T22:44:14.289Z,98807.72
2022-12-13T22:46:42.628Z,98808.50
2022-12-13T22:49:11.701Z,98796.22
2022-12-13T22:51:40.926Z,98793.66
2022-12-13T22:54:09.097Z,98787.56
2022-12-13T22:56:36.660Z,98791.94
2022-12-13T22:59:07.079Z,98787.53
2022-12-13T23:01:37.398Z,98799.53
2022-12-13T23:04:05.978Z,98783.81
2022-12-13T23:06:35.379Z,98781.16
2022-12-13T23:09:06.632Z,98784.63
2022-12-13T23:11:51.894Z,98787.38
2022-12-13T23:14:20.993Z,98782.09
2022-12-13T23:16:48.467Z,98777.03
2022-12-13T23:19:40.874Z,98778.94
2022-12-13T23:22:07.180Z,98777.09
2022-12-13T23:24:36.006Z,98772.88
2022-12-13T23:27:03.528Z,98771.19
2022-12-13T23:29:31.236Z,98773.81
2022-12-13T23:31:58.876Z,98771.19
2022-12-13T23:34:26.380Z,98778.13
2022-12-13T23:36:54.020Z,98770.28
2022-12-13T23:39:21.526Z,98772.19
2022-12-13T23:41:50.741Z,98776.59
2022-12-13T23:44:18.542Z,98778.41
2022-12-13T23:46:48.738Z,98769.53
2022-12-13T23:49:17.090Z,98770.59
2022-12-13T23:51:44.770Z,98770.41
2022-12-13T23:54:16.111Z,98759.03
2022-12-13T23:56:43.578Z,98750.25
2022-12-13T23:59:12.555Z,98752.94
